WMT4QH LATI-ESMS
Flight info
| Callsign | WMT4QH |
|---|---|
| Flight time | 2h 24m |
| Altitude | 36000 |
| Route | INLOT DCT RETRA DCT GACMO DCT OBUTI DCT INSAX DCT LOKVU/N0453F380 DCT ODLIV DCT HDO M725 KOGIM M44 ARGAD Z400 BAKLI |
| Aircraft | A21N/M-SDE1E2E3FGIJ1J4RWXY/LB1 |
Departure
| Time | 2026-04-25 18:09 |
|---|---|
| Airport | Tirana International Airport Mother Teresa (LATI) |
Arrival
| Time | 2026-04-25 20:33 |
|---|---|
| Airport | Malmö Sturup Airport (ESMS) |
| Time | Latitude | Longitude | Altitude | Speed | Heading |
|---|---|---|---|---|---|
| 2026-04-25 17:48 | 41.41950 | 19.71520 | 120 ft | 0 kts | 264° |
| 2026-04-25 17:59 | 41.41951 | 19.71530 | 120 ft | 2 kts | 264° |
| 2026-04-25 17:59 | 41.41951 | 19.71542 | 120 ft | 2 kts | 261° |
| 2026-04-25 18:00 | 41.41957 | 19.71561 | 120 ft | 2 kts | 229° |
| 2026-04-25 18:00 | 41.41968 | 19.71574 | 120 ft | 2 kts | 204° |
| 2026-04-25 18:00 | 41.41983 | 19.71579 | 120 ft | 1 kts | 179° |
| 2026-04-25 18:00 | 41.41985 | 19.71579 | 120 ft | 0 kts | 178° |
| 2026-04-25 18:03 | 41.41981 | 19.71579 | 120 ft | 1 kts | 176° |
| 2026-04-25 18:03 | 41.41958 | 19.71582 | 120 ft | 5 kts | 175° |
| 2026-04-25 18:04 | 41.41911 | 19.71588 | 120 ft | 8 kts | 173° |
| 2026-04-25 18:04 | 41.41843 | 19.71598 | 121 ft | 11 kts | 174° |
| 2026-04-25 18:04 | 41.41754 | 19.71608 | 122 ft | 14 kts | 174° |
| 2026-04-25 18:04 | 41.41649 | 19.71621 | 123 ft | 16 kts | 172° |
| 2026-04-25 18:05 | 41.41530 | 19.71638 | 124 ft | 18 kts | 174° |
| 2026-04-25 18:05 | 41.41399 | 19.71653 | 126 ft | 19 kts | 173° |
| 2026-04-25 18:05 | 41.41257 | 19.71673 | 127 ft | 21 kts | 172° |
| 2026-04-25 18:05 | 41.41107 | 19.71692 | 128 ft | 22 kts | 172° |
| 2026-04-25 18:06 | 41.40951 | 19.71718 | 129 ft | 22 kts | 169° |
| 2026-04-25 18:06 | 41.40804 | 19.71750 | 130 ft | 20 kts | 170° |
| 2026-04-25 18:06 | 41.40664 | 19.71772 | 131 ft | 19 kts | 174° |
| 2026-04-25 18:06 | 41.40529 | 19.71787 | 132 ft | 18 kts | 172° |
| 2026-04-25 18:07 | 41.40405 | 19.71817 | 133 ft | 17 kts | 156° |
| 2026-04-25 18:07 | 41.40305 | 19.71906 | 133 ft | 17 kts | 142° |
| 2026-04-25 18:07 | 41.40242 | 19.72025 | 134 ft | 16 kts | 90° |
| 2026-04-25 18:07 | 41.40255 | 19.72165 | 134 ft | 13 kts | 72° |
| 2026-04-25 18:08 | 41.40295 | 19.72210 | 134 ft | 7 kts | 358° |
| 2026-04-25 18:08 | 41.40496 | 19.72182 | 133 ft | 64 kts | 352° |
| 2026-04-25 18:08 | 41.41184 | 19.72094 | 129 ft | 132 kts | 352° |
| 2026-04-25 18:08 | 41.42274 | 19.71953 | 275 ft | 170 kts | 351° |
| 2026-04-25 18:09 | 41.43425 | 19.71818 | 1018 ft | 163 kts | 353° |
| 2026-04-25 18:09 | 41.44533 | 19.71656 | 1738 ft | 159 kts | 353° |
| 2026-04-25 18:09 | 41.45670 | 19.71476 | 2046 ft | 171 kts | 354° |
| 2026-04-25 18:09 | 41.46077 | 19.71407 | 2134 ft | 176 kts | 353° |
| 2026-04-25 18:10 | 41.48223 | 19.71044 | 2629 ft | 201 kts | 357° |
| 2026-04-25 18:10 | 41.49678 | 19.70983 | 2936 ft | 217 kts | 359° |
| 2026-04-25 18:10 | 41.51256 | 19.70902 | 3190 ft | 237 kts | 358° |
| 2026-04-25 18:10 | 41.52942 | 19.70757 | 3795 ft | 243 kts | 356° |
| 2026-04-25 18:11 | 41.54616 | 19.70581 | 4452 ft | 247 kts | 356° |
| 2026-04-25 18:11 | 41.56311 | 19.70241 | 5137 ft | 250 kts | 346° |
| 2026-04-25 18:11 | 41.57955 | 19.69463 | 5807 ft | 254 kts | 338° |
| 2026-04-25 18:11 | 41.59573 | 19.68492 | 6478 ft | 257 kts | 337° |
| 2026-04-25 18:12 | 41.61189 | 19.67495 | 7141 ft | 260 kts | 336° |
| 2026-04-25 18:12 | 41.62819 | 19.66493 | 7804 ft | 262 kts | 337° |
| 2026-04-25 18:12 | 41.64487 | 19.65477 | 8460 ft | 264 kts | 337° |
| 2026-04-25 18:12 | 41.66174 | 19.64455 | 9063 ft | 268 kts | 337° |
| 2026-04-25 18:13 | 41.67915 | 19.63407 | 9414 ft | 282 kts | 337° |
| 2026-04-25 18:13 | 41.69717 | 19.62325 | 9921 ft | 288 kts | 337° |
| 2026-04-25 18:13 | 41.71538 | 19.61230 | 10495 ft | 293 kts | 337° |
| 2026-04-25 18:14 | 41.75437 | 19.58879 | 11160 ft | 318 kts | 336° |
| 2026-04-25 18:14 | 41.77466 | 19.57654 | 11734 ft | 321 kts | 336° |
| 2026-04-25 18:14 | 41.79482 | 19.56438 | 12339 ft | 323 kts | 336° |
| 2026-04-25 18:14 | 41.81531 | 19.55204 | 12923 ft | 324 kts | 336° |
| 2026-04-25 18:15 | 41.83593 | 19.53964 | 13515 ft | 325 kts | 336° |
| 2026-04-25 18:15 | 41.85671 | 19.52711 | 14100 ft | 327 kts | 336° |
| 2026-04-25 18:15 | 41.87748 | 19.51458 | 14664 ft | 329 kts | 336° |
| 2026-04-25 18:15 | 41.89817 | 19.50209 | 15202 ft | 331 kts | 336° |
| 2026-04-25 18:16 | 41.91928 | 19.48935 | 15723 ft | 334 kts | 336° |
| 2026-04-25 18:16 | 41.94042 | 19.47658 | 16226 ft | 336 kts | 336° |
| 2026-04-25 18:16 | 41.98320 | 19.45151 | 17206 ft | 339 kts | 339° |
| 2026-04-25 18:17 | 42.00555 | 19.44061 | 17666 ft | 341 kts | 341° |
| 2026-04-25 18:17 | 42.02801 | 19.42988 | 18123 ft | 344 kts | 342° |
| 2026-04-25 18:17 | 42.05051 | 19.41905 | 18574 ft | 347 kts | 342° |
| 2026-04-25 18:17 | 42.07317 | 19.40813 | 19024 ft | 349 kts | 342° |
| 2026-04-25 18:18 | 42.09603 | 19.39719 | 19463 ft | 351 kts | 342° |
| 2026-04-25 18:18 | 42.11897 | 19.38626 | 19928 ft | 352 kts | 342° |
| 2026-04-25 18:18 | 42.14245 | 19.37511 | 20352 ft | 354 kts | 342° |
| 2026-04-25 18:18 | 42.16538 | 19.36420 | 20774 ft | 356 kts | 342° |
| 2026-04-25 18:19 | 42.18889 | 19.35300 | 21196 ft | 358 kts | 342° |
| 2026-04-25 18:19 | 42.21225 | 19.34113 | 21627 ft | 359 kts | 338° |
| 2026-04-25 18:19 | 42.23492 | 19.32684 | 22029 ft | 361 kts | 334° |
| 2026-04-25 18:19 | 42.25688 | 19.31002 | 22404 ft | 364 kts | 330° |
| 2026-04-25 18:20 | 42.27841 | 19.29215 | 22773 ft | 366 kts | 329° |
| 2026-04-25 18:20 | 42.30004 | 19.27399 | 23162 ft | 368 kts | 329° |
| 2026-04-25 18:20 | 42.32173 | 19.25576 | 23541 ft | 369 kts | 329° |
| 2026-04-25 18:20 | 42.34342 | 19.23752 | 23899 ft | 371 kts | 329° |
| 2026-04-25 18:21 | 42.36546 | 19.21900 | 24243 ft | 374 kts | 329° |
| 2026-04-25 18:21 | 42.38761 | 19.20037 | 24573 ft | 376 kts | 329° |
| 2026-04-25 18:21 | 42.40982 | 19.18171 | 24900 ft | 378 kts | 329° |
| 2026-04-25 18:21 | 42.43214 | 19.16295 | 25213 ft | 380 kts | 329° |
| 2026-04-25 18:22 | 42.45470 | 19.14397 | 25517 ft | 382 kts | 329° |
| 2026-04-25 18:22 | 42.46242 | 19.13747 | 25620 ft | 383 kts | 329° |
| 2026-04-25 18:22 | 42.50012 | 19.10568 | 26127 ft | 386 kts | 329° |
| 2026-04-25 18:22 | 42.52294 | 19.08643 | 26414 ft | 388 kts | 329° |
| 2026-04-25 18:23 | 42.54586 | 19.06707 | 26695 ft | 390 kts | 329° |
| 2026-04-25 18:23 | 42.56851 | 19.04792 | 26973 ft | 392 kts | 329° |
| 2026-04-25 18:23 | 42.59190 | 19.02815 | 27253 ft | 394 kts | 329° |
| 2026-04-25 18:23 | 42.61527 | 19.00838 | 27535 ft | 395 kts | 329° |
| 2026-04-25 18:24 | 42.63842 | 18.98878 | 27794 ft | 397 kts | 329° |
| 2026-04-25 18:24 | 42.66188 | 18.96888 | 28052 ft | 399 kts | 329° |
| 2026-04-25 18:24 | 42.68554 | 18.94881 | 28314 ft | 401 kts | 329° |
| 2026-04-25 18:24 | 42.70898 | 18.92889 | 28578 ft | 402 kts | 329° |
| 2026-04-25 18:25 | 42.73284 | 18.90858 | 28832 ft | 404 kts | 329° |
| 2026-04-25 18:25 | 42.75653 | 18.88840 | 29080 ft | 406 kts | 329° |
| 2026-04-25 18:25 | 42.78048 | 18.86797 | 29331 ft | 407 kts | 329° |
| 2026-04-25 18:25 | 42.80443 | 18.84755 | 29579 ft | 409 kts | 329° |
| 2026-04-25 18:26 | 42.82872 | 18.82682 | 29825 ft | 410 kts | 329° |
| 2026-04-25 18:26 | 42.85273 | 18.80630 | 30068 ft | 412 kts | 329° |
| 2026-04-25 18:26 | 42.87705 | 18.78551 | 30307 ft | 413 kts | 329° |
| 2026-04-25 18:26 | 42.90130 | 18.76478 | 30525 ft | 415 kts | 329° |
| 2026-04-25 18:27 | 42.92600 | 18.74365 | 30757 ft | 416 kts | 329° |
| 2026-04-25 18:27 | 42.95032 | 18.72284 | 30983 ft | 418 kts | 329° |
| 2026-04-25 18:27 | 42.97503 | 18.70169 | 31201 ft | 419 kts | 329° |
| 2026-04-25 18:27 | 42.99970 | 18.68054 | 31414 ft | 420 kts | 329° |
| 2026-04-25 18:28 | 43.02446 | 18.65931 | 31638 ft | 421 kts | 329° |
| 2026-04-25 18:28 | 43.04915 | 18.63811 | 31851 ft | 422 kts | 329° |
| 2026-04-25 18:28 | 43.07412 | 18.61662 | 32049 ft | 424 kts | 329° |
| 2026-04-25 18:29 | 43.12378 | 18.57381 | 32608 ft | 422 kts | 329° |
| 2026-04-25 18:29 | 43.14926 | 18.55365 | 32936 ft | 420 kts | 333° |
| 2026-04-25 18:30 | 43.22739 | 18.50054 | 33802 ft | 417 kts | 335° |
| 2026-04-25 18:30 | 43.25333 | 18.48330 | 34064 ft | 416 kts | 335° |
| 2026-04-25 18:30 | 43.27923 | 18.46608 | 34319 ft | 415 kts | 335° |
| 2026-04-25 18:30 | 43.30491 | 18.44899 | 34611 ft | 414 kts | 335° |
| 2026-04-25 18:31 | 43.33110 | 18.43155 | 34890 ft | 413 kts | 335° |
| 2026-04-25 18:31 | 43.35681 | 18.41442 | 35154 ft | 412 kts | 335° |
| 2026-04-25 18:31 | 43.38239 | 18.39736 | 35412 ft | 411 kts | 335° |
| 2026-04-25 18:31 | 43.40808 | 18.38021 | 35665 ft | 410 kts | 335° |
| 2026-04-25 18:32 | 43.43372 | 18.36307 | 35912 ft | 409 kts | 334° |
| 2026-04-25 18:32 | 43.45924 | 18.34597 | 36038 ft | 410 kts | 334° |
| 2026-04-25 18:32 | 43.51038 | 18.31159 | 36038 ft | 411 kts | 334° |
| 2026-04-25 18:33 | 43.56168 | 18.27706 | 36038 ft | 410 kts | 334° |
| 2026-04-25 18:33 | 43.61290 | 18.24248 | 36041 ft | 410 kts | 334° |
| 2026-04-25 18:34 | 43.66427 | 18.20779 | 36046 ft | 416 kts | 334° |
| 2026-04-25 18:34 | 43.71671 | 18.17226 | 36052 ft | 424 kts | 334° |
| 2026-04-25 18:35 | 43.76984 | 18.13618 | 36053 ft | 428 kts | 333° |
| 2026-04-25 18:35 | 43.82321 | 18.09989 | 36048 ft | 428 kts | 333° |
| 2026-04-25 18:36 | 43.87624 | 18.06378 | 36038 ft | 428 kts | 333° |
| 2026-04-25 18:36 | 43.92960 | 18.02737 | 36034 ft | 428 kts | 333° |
| 2026-04-25 18:37 | 43.98292 | 17.99091 | 36029 ft | 428 kts | 333° |
| 2026-04-25 18:37 | 44.03621 | 17.95442 | 36031 ft | 428 kts | 333° |
| 2026-04-25 18:38 | 44.08923 | 17.91801 | 36038 ft | 428 kts | 333° |
| 2026-04-25 18:38 | 44.14287 | 17.88110 | 36037 ft | 427 kts | 333° |
| 2026-04-25 18:39 | 44.19595 | 17.84448 | 36029 ft | 426 kts | 333° |
| 2026-04-25 18:39 | 44.24874 | 17.80800 | 36029 ft | 427 kts | 333° |
| 2026-04-25 18:40 | 44.30209 | 17.77113 | 36024 ft | 427 kts | 333° |
| 2026-04-25 18:40 | 44.35507 | 17.73448 | 36027 ft | 427 kts | 333° |
| 2026-04-25 18:41 | 44.40818 | 17.69762 | 36033 ft | 426 kts | 332° |
| 2026-04-25 18:41 | 44.46101 | 17.66082 | 36038 ft | 426 kts | 333° |
| 2026-04-25 18:42 | 44.49637 | 17.63617 | 36040 ft | 427 kts | 332° |
| 2026-04-25 18:42 | 44.56692 | 17.58685 | 36032 ft | 426 kts | 332° |
| 2026-04-25 18:43 | 44.61993 | 17.54969 | 36022 ft | 426 kts | 332° |
| 2026-04-25 18:43 | 44.67287 | 17.51256 | 36014 ft | 426 kts | 332° |
| 2026-04-25 18:44 | 44.72539 | 17.47561 | 36003 ft | 425 kts | 332° |
| 2026-04-25 18:44 | 44.77851 | 17.43823 | 35995 ft | 426 kts | 332° |
| 2026-04-25 18:45 | 44.83104 | 17.40115 | 35987 ft | 425 kts | 332° |
| 2026-04-25 18:45 | 44.88392 | 17.36368 | 35979 ft | 425 kts | 332° |
| 2026-04-25 18:46 | 44.93676 | 17.32612 | 35979 ft | 425 kts | 331° |
| 2026-04-25 18:46 | 44.98915 | 17.28890 | 35976 ft | 425 kts | 331° |
| 2026-04-25 18:47 | 45.04194 | 17.25132 | 35974 ft | 425 kts | 331° |
| 2026-04-25 18:47 | 45.09454 | 17.21382 | 35973 ft | 424 kts | 331° |
| 2026-04-25 18:48 | 45.14718 | 17.17620 | 35976 ft | 424 kts | 331° |
| 2026-04-25 18:48 | 45.19962 | 17.13859 | 35974 ft | 424 kts | 331° |
| 2026-04-25 18:49 | 45.25235 | 17.10067 | 35976 ft | 425 kts | 331° |
| 2026-04-25 18:49 | 45.30485 | 17.06295 | 35974 ft | 424 kts | 331° |
| 2026-04-25 18:50 | 45.35729 | 17.02516 | 35973 ft | 424 kts | 330° |
| 2026-04-25 18:50 | 45.40968 | 16.98728 | 35972 ft | 424 kts | 330° |
| 2026-04-25 18:51 | 45.44470 | 16.96192 | 35973 ft | 424 kts | 330° |
| 2026-04-25 18:51 | 45.51465 | 16.91115 | 35970 ft | 424 kts | 330° |
| 2026-04-25 18:52 | 45.56716 | 16.87296 | 35971 ft | 424 kts | 330° |
| 2026-04-25 18:52 | 45.61964 | 16.83473 | 35970 ft | 423 kts | 330° |
| 2026-04-25 18:53 | 45.67176 | 16.79670 | 35971 ft | 424 kts | 330° |
| 2026-04-25 18:53 | 45.72413 | 16.75840 | 35971 ft | 424 kts | 330° |
| 2026-04-25 18:54 | 45.80264 | 16.70080 | 35967 ft | 424 kts | 330° |
| 2026-04-25 18:55 | 45.85498 | 16.66231 | 35966 ft | 424 kts | 330° |
| 2026-04-25 18:55 | 45.90762 | 16.62352 | 35964 ft | 424 kts | 330° |
| 2026-04-25 18:56 | 45.95991 | 16.58489 | 35962 ft | 424 kts | 330° |
| 2026-04-25 18:56 | 46.01195 | 16.54636 | 35959 ft | 424 kts | 330° |
| 2026-04-25 18:57 | 46.06438 | 16.50746 | 35963 ft | 423 kts | 330° |
| 2026-04-25 18:57 | 46.11655 | 16.46871 | 35962 ft | 424 kts | 330° |
| 2026-04-25 18:58 | 46.16892 | 16.42973 | 35963 ft | 423 kts | 330° |
| 2026-04-25 18:58 | 46.24739 | 16.37128 | 35965 ft | 423 kts | 330° |
| 2026-04-25 18:59 | 46.35247 | 16.29548 | 35970 ft | 425 kts | 334° |
| 2026-04-25 19:00 | 46.43720 | 16.25517 | 35972 ft | 432 kts | 343° |
| 2026-04-25 19:01 | 46.52494 | 16.22823 | 35972 ft | 433 kts | 345° |
| 2026-04-25 19:01 | 46.58389 | 16.21060 | 35976 ft | 432 kts | 344° |
| 2026-04-25 19:02 | 46.67191 | 16.18409 | 35973 ft | 432 kts | 344° |
| 2026-04-25 19:03 | 46.74023 | 16.16343 | 35979 ft | 432 kts | 344° |
| 2026-04-25 19:03 | 46.81853 | 16.13972 | 35977 ft | 432 kts | 344° |
| 2026-04-25 19:04 | 46.90648 | 16.11309 | 35977 ft | 431 kts | 344° |
| 2026-04-25 19:05 | 47.02376 | 16.07939 | 35966 ft | 433 kts | 348° |
| 2026-04-25 19:06 | 47.08358 | 16.07030 | 35969 ft | 435 kts | 351° |
| 2026-04-25 19:06 | 47.17443 | 16.05861 | 35974 ft | 435 kts | 351° |
| 2026-04-25 19:07 | 47.26472 | 16.04700 | 35976 ft | 435 kts | 351° |
| 2026-04-25 19:08 | 47.35517 | 16.03536 | 35989 ft | 436 kts | 351° |
| 2026-04-25 19:09 | 47.45564 | 16.02232 | 36010 ft | 436 kts | 351° |
| 2026-04-25 19:10 | 47.56610 | 16.00793 | 36019 ft | 435 kts | 351° |
| 2026-04-25 19:10 | 47.62624 | 16.00007 | 36017 ft | 435 kts | 351° |
| 2026-04-25 19:11 | 47.68673 | 15.99216 | 36011 ft | 436 kts | 351° |
| 2026-04-25 19:11 | 47.74678 | 15.98429 | 36011 ft | 436 kts | 351° |
| 2026-04-25 19:12 | 47.80728 | 15.97633 | 36012 ft | 437 kts | 351° |
| 2026-04-25 19:12 | 47.86745 | 15.96842 | 36009 ft | 436 kts | 351° |
| 2026-04-25 19:13 | 47.92764 | 15.96045 | 36002 ft | 436 kts | 351° |
| 2026-04-25 19:13 | 47.98803 | 15.95246 | 36013 ft | 436 kts | 351° |
| 2026-04-25 19:14 | 48.04817 | 15.94446 | 36012 ft | 435 kts | 351° |
| 2026-04-25 19:14 | 48.10828 | 15.93648 | 36004 ft | 435 kts | 351° |
| 2026-04-25 19:15 | 48.16662 | 15.92872 | 35992 ft | 435 kts | 351° |
| 2026-04-25 19:15 | 48.22575 | 15.92088 | 35996 ft | 432 kts | 351° |
| 2026-04-25 19:16 | 48.28520 | 15.91299 | 36012 ft | 432 kts | 351° |
| 2026-04-25 19:16 | 48.34502 | 15.90506 | 36031 ft | 431 kts | 352° |
| 2026-04-25 19:17 | 48.40470 | 15.89711 | 35808 ft | 431 kts | 352° |
| 2026-04-25 19:17 | 48.43432 | 15.89314 | 35909 ft | 431 kts | 352° |
| 2026-04-25 19:17 | 48.46399 | 15.88915 | 35950 ft | 431 kts | 352° |
| 2026-04-25 19:18 | 48.52377 | 15.88115 | 35983 ft | 430 kts | 352° |
| 2026-04-25 19:18 | 48.58286 | 15.87324 | 35981 ft | 429 kts | 352° |
| 2026-04-25 19:19 | 48.64249 | 15.86520 | 35991 ft | 429 kts | 352° |
| 2026-04-25 19:19 | 48.70173 | 15.85734 | 35989 ft | 428 kts | 352° |
| 2026-04-25 19:20 | 48.76060 | 15.84951 | 35988 ft | 427 kts | 352° |
| 2026-04-25 19:20 | 48.81944 | 15.84081 | 35981 ft | 425 kts | 349° |
| 2026-04-25 19:21 | 48.87702 | 15.82439 | 35982 ft | 421 kts | 344° |
| 2026-04-25 19:21 | 48.96021 | 15.78347 | 35987 ft | 417 kts | 338° |
| 2026-04-25 19:22 | 49.01409 | 15.75203 | 35985 ft | 416 kts | 337° |
| 2026-04-25 19:23 | 49.09504 | 15.70456 | 35988 ft | 416 kts | 337° |
| 2026-04-25 19:23 | 49.17493 | 15.65750 | 35984 ft | 415 kts | 337° |
| 2026-04-25 19:24 | 49.22861 | 15.62584 | 35986 ft | 415 kts | 337° |
| 2026-04-25 19:25 | 49.33617 | 15.56212 | 35986 ft | 414 kts | 337° |
| 2026-04-25 19:25 | 49.38957 | 15.53036 | 35984 ft | 414 kts | 337° |
| 2026-04-25 19:26 | 49.44333 | 15.49838 | 35986 ft | 414 kts | 337° |
| 2026-04-25 19:26 | 49.49662 | 15.46657 | 35988 ft | 413 kts | 337° |
| 2026-04-25 19:27 | 49.53222 | 15.44528 | 35986 ft | 413 kts | 337° |
| 2026-04-25 19:27 | 49.60346 | 15.40256 | 35986 ft | 413 kts | 337° |
| 2026-04-25 19:28 | 49.65670 | 15.37053 | 35980 ft | 412 kts | 337° |
| 2026-04-25 19:28 | 49.70976 | 15.33857 | 35979 ft | 412 kts | 336° |
| 2026-04-25 19:29 | 49.76321 | 15.30627 | 35980 ft | 411 kts | 336° |
| 2026-04-25 19:29 | 49.81616 | 15.27422 | 35978 ft | 410 kts | 336° |
| 2026-04-25 19:30 | 49.86909 | 15.24214 | 35976 ft | 410 kts | 336° |
| 2026-04-25 19:30 | 49.92230 | 15.20977 | 35972 ft | 410 kts | 336° |
| 2026-04-25 19:31 | 49.97519 | 15.17754 | 35975 ft | 409 kts | 336° |
| 2026-04-25 19:31 | 50.02790 | 15.14540 | 35975 ft | 409 kts | 336° |
| 2026-04-25 19:32 | 50.08060 | 15.11314 | 35971 ft | 408 kts | 336° |
| 2026-04-25 19:32 | 50.11575 | 15.09161 | 35974 ft | 408 kts | 336° |
| 2026-04-25 19:33 | 50.18472 | 15.04920 | 35970 ft | 408 kts | 336° |
| 2026-04-25 19:33 | 50.23735 | 15.01684 | 35974 ft | 408 kts | 336° |
| 2026-04-25 19:34 | 50.29012 | 14.98435 | 35976 ft | 407 kts | 336° |
| 2026-04-25 19:34 | 50.34235 | 14.95221 | 35978 ft | 407 kts | 336° |
| 2026-04-25 19:35 | 50.39485 | 14.91975 | 35978 ft | 406 kts | 336° |
| 2026-04-25 19:35 | 50.44703 | 14.88603 | 35977 ft | 404 kts | 333° |
| 2026-04-25 19:36 | 50.49636 | 14.84546 | 35971 ft | 402 kts | 328° |
| 2026-04-25 19:36 | 50.54294 | 14.79760 | 35977 ft | 401 kts | 324° |
| 2026-04-25 19:37 | 50.58859 | 14.74724 | 35974 ft | 401 kts | 324° |
| 2026-04-25 19:37 | 50.63395 | 14.69690 | 35972 ft | 401 kts | 324° |
| 2026-04-25 19:38 | 50.67928 | 14.64647 | 35977 ft | 400 kts | 324° |
| 2026-04-25 19:38 | 50.72480 | 14.59574 | 35970 ft | 400 kts | 324° |
| 2026-04-25 19:39 | 50.77002 | 14.54535 | 35972 ft | 400 kts | 324° |
| 2026-04-25 19:39 | 50.81533 | 14.49460 | 35974 ft | 400 kts | 324° |
| 2026-04-25 19:40 | 50.86066 | 14.44416 | 35979 ft | 401 kts | 326° |
| 2026-04-25 19:40 | 50.90930 | 14.40110 | 35975 ft | 403 kts | 334° |
| 2026-04-25 19:41 | 50.96197 | 14.36935 | 35976 ft | 407 kts | 341° |
| 2026-04-25 19:41 | 50.99872 | 14.35494 | 35971 ft | 410 kts | 346° |
| 2026-04-25 19:42 | 51.07200 | 14.33868 | 35964 ft | 411 kts | 348° |
| 2026-04-25 19:42 | 51.12873 | 14.32825 | 35964 ft | 410 kts | 348° |
| 2026-04-25 19:43 | 51.18431 | 14.31819 | 35966 ft | 409 kts | 348° |
| 2026-04-25 19:43 | 51.24115 | 14.30761 | 35964 ft | 409 kts | 348° |
| 2026-04-25 19:44 | 51.29750 | 14.29717 | 35966 ft | 408 kts | 348° |
| 2026-04-25 19:44 | 51.35339 | 14.28673 | 35976 ft | 408 kts | 348° |
| 2026-04-25 19:45 | 51.40971 | 14.27623 | 35978 ft | 407 kts | 348° |
| 2026-04-25 19:45 | 51.46584 | 14.26566 | 35983 ft | 406 kts | 348° |
| 2026-04-25 19:46 | 51.50950 | 14.25738 | 35983 ft | 405 kts | 347° |
| 2026-04-25 19:46 | 51.53399 | 14.25293 | 35982 ft | 405 kts | 348° |
| 2026-04-25 19:47 | 51.59005 | 14.24219 | 35983 ft | 404 kts | 347° |
| 2026-04-25 19:47 | 51.64563 | 14.23143 | 35989 ft | 403 kts | 347° |
| 2026-04-25 19:48 | 51.67709 | 14.22538 | 35990 ft | 403 kts | 347° |
| 2026-04-25 19:48 | 51.73255 | 14.21450 | 35989 ft | 403 kts | 348° |
| 2026-04-25 19:49 | 51.76982 | 14.20758 | 35987 ft | 402 kts | 347° |
| 2026-04-25 19:49 | 51.84369 | 14.19402 | 35983 ft | 402 kts | 348° |
| 2026-04-25 19:50 | 51.92616 | 14.17817 | 35983 ft | 399 kts | 347° |
| 2026-04-25 19:51 | 51.98087 | 14.16753 | 36019 ft | 397 kts | 348° |
| 2026-04-25 19:51 | 52.03544 | 14.15700 | 36088 ft | 394 kts | 347° |
| 2026-04-25 19:52 | 52.08886 | 14.14665 | 36108 ft | 380 kts | 347° |
| 2026-04-25 19:52 | 52.14119 | 14.13639 | 36017 ft | 387 kts | 347° |
| 2026-04-25 19:53 | 52.19501 | 14.12587 | 35993 ft | 394 kts | 347° |
| 2026-04-25 19:53 | 52.24927 | 14.11525 | 35986 ft | 395 kts | 347° |
| 2026-04-25 19:54 | 52.30401 | 14.10467 | 35981 ft | 394 kts | 347° |
| 2026-04-25 19:54 | 52.35827 | 14.09393 | 35975 ft | 394 kts | 346° |
| 2026-04-25 19:55 | 52.41258 | 14.08332 | 35973 ft | 394 kts | 347° |
| 2026-04-25 19:55 | 52.46684 | 14.07260 | 35969 ft | 392 kts | 347° |
| 2026-04-25 19:56 | 52.52067 | 14.06194 | 35980 ft | 392 kts | 347° |
| 2026-04-25 19:56 | 52.57481 | 14.05120 | 35972 ft | 393 kts | 346° |
| 2026-04-25 19:57 | 52.62861 | 14.04050 | 35952 ft | 392 kts | 346° |
| 2026-04-25 19:57 | 52.68253 | 14.02955 | 35962 ft | 391 kts | 346° |
| 2026-04-25 19:58 | 52.73669 | 14.01895 | 35953 ft | 391 kts | 346° |
| 2026-04-25 19:58 | 52.79008 | 14.00836 | 35942 ft | 390 kts | 346° |
| 2026-04-25 19:59 | 52.84367 | 13.99747 | 35951 ft | 389 kts | 346° |
| 2026-04-25 19:59 | 52.89759 | 13.98663 | 35946 ft | 389 kts | 346° |
| 2026-04-25 20:00 | 52.95107 | 13.97598 | 35948 ft | 389 kts | 346° |
| 2026-04-25 20:00 | 53.00474 | 13.96494 | 35949 ft | 390 kts | 345° |
| 2026-04-25 20:01 | 53.08462 | 13.94880 | 35911 ft | 388 kts | 345° |
| 2026-04-25 20:01 | 53.13819 | 13.93799 | 35940 ft | 387 kts | 346° |
| 2026-04-25 20:02 | 53.19128 | 13.92704 | 35926 ft | 387 kts | 345° |
| 2026-04-25 20:02 | 53.24455 | 13.91619 | 35891 ft | 386 kts | 345° |
| 2026-04-25 20:03 | 53.29775 | 13.90524 | 35900 ft | 387 kts | 345° |
| 2026-04-25 20:03 | 53.32638 | 13.89927 | 35901 ft | 387 kts | 346° |
| 2026-04-25 20:04 | 53.37954 | 13.88789 | 35923 ft | 386 kts | 345° |
| 2026-04-25 20:04 | 53.43281 | 13.87686 | 35899 ft | 386 kts | 345° |
| 2026-04-25 20:05 | 53.48620 | 13.86585 | 35909 ft | 387 kts | 345° |
| 2026-04-25 20:05 | 53.53670 | 13.85562 | 35917 ft | 385 kts | 346° |
| 2026-04-25 20:06 | 53.56596 | 13.84970 | 35700 ft | 388 kts | 345° |
| 2026-04-25 20:06 | 53.59271 | 13.84414 | 35322 ft | 384 kts | 345° |
| 2026-04-25 20:06 | 53.61886 | 13.83874 | 34869 ft | 378 kts | 345° |
| 2026-04-25 20:06 | 53.64451 | 13.83348 | 34419 ft | 371 kts | 345° |
| 2026-04-25 20:07 | 53.66966 | 13.82837 | 33917 ft | 365 kts | 345° |
| 2026-04-25 20:07 | 53.69490 | 13.82316 | 33406 ft | 366 kts | 344° |
| 2026-04-25 20:07 | 53.72025 | 13.81784 | 32917 ft | 367 kts | 344° |
| 2026-04-25 20:07 | 53.74545 | 13.81249 | 32402 ft | 369 kts | 343° |
| 2026-04-25 20:08 | 53.77080 | 13.80707 | 31871 ft | 365 kts | 344° |
| 2026-04-25 20:08 | 53.79553 | 13.80164 | 31389 ft | 361 kts | 345° |
| 2026-04-25 20:08 | 53.82026 | 13.79603 | 30902 ft | 357 kts | 345° |
| 2026-04-25 20:08 | 53.84488 | 13.79058 | 30416 ft | 355 kts | 344° |
| 2026-04-25 20:09 | 53.86904 | 13.78539 | 29923 ft | 353 kts | 345° |
| 2026-04-25 20:09 | 53.89317 | 13.78019 | 29437 ft | 349 kts | 345° |
| 2026-04-25 20:09 | 53.91692 | 13.77519 | 28962 ft | 346 kts | 345° |
| 2026-04-25 20:09 | 53.94093 | 13.76999 | 28479 ft | 344 kts | 345° |
| 2026-04-25 20:10 | 53.94874 | 13.76828 | 28322 ft | 342 kts | 345° |
| 2026-04-25 20:10 | 53.98747 | 13.75995 | 27525 ft | 337 kts | 344° |
| 2026-04-25 20:10 | 54.01042 | 13.75501 | 27056 ft | 335 kts | 344° |
| 2026-04-25 20:10 | 54.03375 | 13.75000 | 26583 ft | 333 kts | 344° |
| 2026-04-25 20:11 | 54.05644 | 13.74524 | 26112 ft | 331 kts | 344° |
| 2026-04-25 20:11 | 54.07905 | 13.74051 | 25636 ft | 327 kts | 344° |
| 2026-04-25 20:11 | 54.10125 | 13.73587 | 25182 ft | 325 kts | 344° |
| 2026-04-25 20:11 | 54.12365 | 13.73117 | 24835 ft | 322 kts | 343° |
| 2026-04-25 20:12 | 54.14620 | 13.72640 | 24600 ft | 323 kts | 344° |
| 2026-04-25 20:12 | 54.16825 | 13.72179 | 24390 ft | 321 kts | 343° |
| 2026-04-25 20:12 | 54.19018 | 13.71711 | 24195 ft | 320 kts | 343° |
| 2026-04-25 20:12 | 54.19745 | 13.71560 | 24120 ft | 319 kts | 345° |
| 2026-04-25 20:13 | 54.23402 | 13.70777 | 23725 ft | 317 kts | 344° |
| 2026-04-25 20:13 | 54.25592 | 13.70302 | 23407 ft | 316 kts | 343° |
| 2026-04-25 20:13 | 54.27757 | 13.69840 | 23023 ft | 312 kts | 344° |
| 2026-04-25 20:13 | 54.29878 | 13.69388 | 22631 ft | 308 kts | 343° |
| 2026-04-25 20:14 | 54.31976 | 13.68936 | 22251 ft | 304 kts | 343° |
| 2026-04-25 20:14 | 54.34055 | 13.68488 | 21871 ft | 300 kts | 344° |
| 2026-04-25 20:14 | 54.36125 | 13.68030 | 21489 ft | 296 kts | 343° |
| 2026-04-25 20:14 | 54.38134 | 13.67594 | 21112 ft | 292 kts | 343° |
| 2026-04-25 20:15 | 54.40141 | 13.67152 | 20736 ft | 288 kts | 344° |
| 2026-04-25 20:15 | 54.42091 | 13.66736 | 20368 ft | 285 kts | 345° |
| 2026-04-25 20:15 | 54.44031 | 13.66315 | 20014 ft | 282 kts | 344° |
| 2026-04-25 20:15 | 54.45987 | 13.65896 | 19700 ft | 288 kts | 344° |
| 2026-04-25 20:16 | 54.47982 | 13.65462 | 19471 ft | 292 kts | 345° |
| 2026-04-25 20:16 | 54.50011 | 13.65017 | 19259 ft | 293 kts | 344° |
| 2026-04-25 20:16 | 54.52023 | 13.64590 | 19047 ft | 291 kts | 344° |
| 2026-04-25 20:16 | 54.53990 | 13.64161 | 18657 ft | 287 kts | 344° |
| 2026-04-25 20:17 | 54.55991 | 13.63713 | 17998 ft | 290 kts | 344° |
| 2026-04-25 20:17 | 54.57987 | 13.63254 | 17409 ft | 291 kts | 345° |
| 2026-04-25 20:17 | 54.59972 | 13.62814 | 16970 ft | 288 kts | 345° |
| 2026-04-25 20:17 | 54.61949 | 13.62375 | 16577 ft | 284 kts | 346° |
| 2026-04-25 20:18 | 54.63879 | 13.61949 | 16218 ft | 280 kts | 346° |
| 2026-04-25 20:18 | 54.65808 | 13.61535 | 15848 ft | 277 kts | 346° |
| 2026-04-25 20:18 | 54.67693 | 13.61126 | 15486 ft | 274 kts | 346° |
| 2026-04-25 20:18 | 54.69562 | 13.60718 | 15150 ft | 270 kts | 347° |
| 2026-04-25 20:19 | 54.71406 | 13.60311 | 14840 ft | 268 kts | 347° |
| 2026-04-25 20:19 | 54.73263 | 13.59905 | 14462 ft | 267 kts | 347° |
| 2026-04-25 20:19 | 54.75079 | 13.59517 | 14077 ft | 266 kts | 347° |
| 2026-04-25 20:19 | 54.76930 | 13.59113 | 13648 ft | 267 kts | 348° |
| 2026-04-25 20:20 | 54.78771 | 13.58711 | 13239 ft | 267 kts | 348° |
| 2026-04-25 20:20 | 54.80596 | 13.58317 | 12844 ft | 266 kts | 348° |
| 2026-04-25 20:20 | 54.82423 | 13.57925 | 12484 ft | 264 kts | 349° |
| 2026-04-25 20:20 | 54.84237 | 13.57529 | 12119 ft | 263 kts | 349° |
| 2026-04-25 20:21 | 54.86045 | 13.57137 | 11747 ft | 262 kts | 349° |
| 2026-04-25 20:21 | 54.87835 | 13.56748 | 11382 ft | 261 kts | 349° |
| 2026-04-25 20:21 | 54.89636 | 13.56353 | 11009 ft | 260 kts | 349° |
| 2026-04-25 20:21 | 54.91420 | 13.55942 | 10626 ft | 259 kts | 348° |
| 2026-04-25 20:22 | 54.93171 | 13.55371 | 10293 ft | 257 kts | 347° |
| 2026-04-25 20:22 | 54.93747 | 13.55174 | 10226 ft | 261 kts | 347° |
| 2026-04-25 20:22 | 54.96668 | 13.54200 | 10030 ft | 247 kts | 347° |
| 2026-04-25 20:22 | 54.98349 | 13.53650 | 9870 ft | 245 kts | 347° |
| 2026-04-25 20:23 | 55.00013 | 13.53101 | 9476 ft | 246 kts | 347° |
| 2026-04-25 20:23 | 55.01687 | 13.52555 | 9105 ft | 244 kts | 347° |
| 2026-04-25 20:23 | 55.03345 | 13.52010 | 8762 ft | 241 kts | 347° |
| 2026-04-25 20:23 | 55.04978 | 13.51467 | 8444 ft | 237 kts | 348° |
| 2026-04-25 20:24 | 55.06576 | 13.50930 | 8136 ft | 234 kts | 348° |
| 2026-04-25 20:24 | 55.08167 | 13.50399 | 7821 ft | 231 kts | 348° |
| 2026-04-25 20:24 | 55.09727 | 13.49881 | 7509 ft | 229 kts | 348° |
| 2026-04-25 20:24 | 55.11279 | 13.49361 | 7208 ft | 227 kts | 348° |
| 2026-04-25 20:25 | 55.12813 | 13.48836 | 6888 ft | 226 kts | 348° |
| 2026-04-25 20:25 | 55.14351 | 13.48312 | 6570 ft | 225 kts | 348° |
| 2026-04-25 20:25 | 55.15871 | 13.47802 | 6246 ft | 224 kts | 348° |
| 2026-04-25 20:25 | 55.17404 | 13.47288 | 5934 ft | 222 kts | 348° |
| 2026-04-25 20:26 | 55.18914 | 13.46781 | 5623 ft | 221 kts | 348° |
| 2026-04-25 20:26 | 55.20416 | 13.46281 | 5315 ft | 220 kts | 348° |
| 2026-04-25 20:26 | 55.21898 | 13.45780 | 5015 ft | 218 kts | 348° |
| 2026-04-25 20:26 | 55.23399 | 13.45272 | 4710 ft | 217 kts | 348° |
| 2026-04-25 20:27 | 55.24851 | 13.44784 | 4411 ft | 216 kts | 348° |
| 2026-04-25 20:27 | 55.26334 | 13.44291 | 4107 ft | 215 kts | 349° |
| 2026-04-25 20:27 | 55.27792 | 13.43806 | 3807 ft | 212 kts | 349° |
| 2026-04-25 20:27 | 55.29216 | 13.43327 | 3507 ft | 210 kts | 349° |
| 2026-04-25 20:28 | 55.30646 | 13.42822 | 3217 ft | 208 kts | 347° |
| 2026-04-25 20:28 | 55.32045 | 13.42239 | 2922 ft | 205 kts | 348° |
| 2026-04-25 20:28 | 55.33421 | 13.41777 | 2654 ft | 203 kts | 349° |
| 2026-04-25 20:28 | 55.34801 | 13.41418 | 2430 ft | 197 kts | 352° |
| 2026-04-25 20:29 | 55.36114 | 13.41129 | 2406 ft | 184 kts | 353° |
| 2026-04-25 20:29 | 55.37382 | 13.40875 | 2405 ft | 184 kts | 353° |
| 2026-04-25 20:29 | 55.38667 | 13.40627 | 2405 ft | 184 kts | 353° |
| 2026-04-25 20:29 | 55.39923 | 13.40386 | 2407 ft | 183 kts | 352° |
| 2026-04-25 20:30 | 55.41198 | 13.40138 | 2423 ft | 180 kts | 353° |
| 2026-04-25 20:30 | 55.42390 | 13.39905 | 2290 ft | 167 kts | 352° |
| 2026-04-25 20:30 | 55.43463 | 13.39690 | 2063 ft | 150 kts | 352° |
| 2026-04-25 20:30 | 55.44481 | 13.39482 | 1843 ft | 146 kts | 352° |
| 2026-04-25 20:31 | 55.45487 | 13.39280 | 1629 ft | 146 kts | 352° |
| 2026-04-25 20:31 | 55.46499 | 13.39075 | 1430 ft | 145 kts | 352° |
| 2026-04-25 20:31 | 55.47495 | 13.38873 | 1230 ft | 144 kts | 352° |
| 2026-04-25 20:31 | 55.48483 | 13.38673 | 1034 ft | 143 kts | 351° |
| 2026-04-25 20:32 | 55.49475 | 13.38455 | 827 ft | 143 kts | 352° |
| 2026-04-25 20:32 | 55.50446 | 13.38262 | 612 ft | 142 kts | 352° |
| 2026-04-25 20:32 | 55.51418 | 13.38084 | 446 ft | 139 kts | 350° |
| 2026-04-25 20:32 | 55.52370 | 13.37887 | 269 ft | 137 kts | 350° |
| 2026-04-25 20:33 | 55.53221 | 13.37704 | 243 ft | 98 kts | 352° |
| 2026-04-25 20:33 | 55.53732 | 13.37594 | 236 ft | 58 kts | 352° |
| 2026-04-25 20:33 | 55.54055 | 13.37531 | 230 ft | 39 kts | 353° |
| 2026-04-25 20:33 | 55.54121 | 13.37518 | 229 ft | 23 kts | 353° |
| 2026-04-25 20:34 | 55.54218 | 13.37366 | 227 ft | 11 kts | 265° |
| 2026-04-25 20:34 | 55.54203 | 13.37240 | 228 ft | 10 kts | 224° |
| 2026-04-25 20:34 | 55.54135 | 13.37223 | 229 ft | 10 kts | 174° |
| 2026-04-25 20:34 | 55.54064 | 13.37238 | 230 ft | 10 kts | 173° |
| 2026-04-25 20:35 | 55.53995 | 13.37240 | 231 ft | 9 kts | 201° |
| 2026-04-25 20:35 | 55.53959 | 13.37140 | 231 ft | 10 kts | 256° |
| 2026-04-25 20:35 | 55.53952 | 13.37010 | 231 ft | 11 kts | 267° |
| 2026-04-25 20:35 | 55.53944 | 13.36875 | 231 ft | 11 kts | 264° |
| 2026-04-25 20:36 | 55.53953 | 13.36805 | 232 ft | 5 kts | 322° |
| 2026-04-25 20:36 | 55.53991 | 13.36790 | 232 ft | 3 kts | 354° |
| 2026-04-25 20:36 | 55.54007 | 13.36787 | 232 ft | 0 kts | 353° |
| 2026-04-25 20:36 | 55.54008 | 13.36786 | 232 ft | 0 kts | 353° |